createdAt,value
2023-01-04T00:01:23.312Z,0.50
2023-01-04T00:03:50.729Z,0.43
2023-01-04T00:06:18.682Z,0.57
2023-01-04T00:08:45.484Z,0.50
2023-01-04T00:11:19.321Z,0.40
2023-01-04T00:13:48.748Z,0.40
2023-01-04T00:16:19.754Z,0.30
2023-01-04T00:18:47.291Z,0.40
2023-01-04T00:21:29.961Z,0.20
2023-01-04T00:24:00.749Z,0.45
2023-01-04T00:26:34.547Z,0.45
2023-01-04T00:29:05.718Z,0.30
2023-01-04T00:31:33.050Z,0.35
2023-01-04T00:34:02.508Z,0.22
2023-01-04T00:36:30.533Z,0.40
2023-01-04T00:39:10.116Z,0.52
2023-01-04T00:41:58.711Z,0.20
2023-01-04T00:44:26.520Z,0.30
2023-01-04T00:46:53.618Z,0.35
2023-01-04T00:49:20.535Z,0.30
2023-01-04T00:51:47.450Z,0.20
2023-01-04T00:54:16.042Z,0.20
2023-01-04T00:56:43.344Z,0.10
2023-01-04T00:59:12.929Z,0.17
2023-01-04T01:01:41.648Z,0.20
2023-01-04T01:04:13.013Z,0.20
2023-01-04T01:06:40.602Z,0.20
2023-01-04T01:09:07.975Z,0.22
2023-01-04T01:11:36.905Z,0.32
2023-01-04T01:14:04.296Z,0.20
2023-01-04T01:16:53.818Z,0.20
2023-01-04T01:19:18.301Z,0.20
2023-01-04T01:21:45.106Z,0.20
2023-01-04T01:24:18.543Z,0.22
2023-01-04T01:26:45.998Z,0.15
2023-01-04T01:29:12.800Z,0.10
2023-01-04T01:31:41.874Z,0.20
2023-01-04T01:34:09.562Z,0.20
2023-01-04T01:36:36.977Z,0.10
2023-01-04T01:39:05.134Z,0.20
2023-01-04T01:41:35.092Z,0.20
2023-01-04T01:44:12.771Z,0.20
2023-01-04T01:46:50.117Z,0.20
2023-01-04T01:49:30.870Z,0.10
2023-01-04T01:52:02.708Z,0.10
2023-01-04T01:54:35.961Z,0.10
2023-01-04T01:57:06.621Z,0.20
2023-01-04T01:59:36.964Z,0.20
2023-01-04T02:02:04.150Z,0.10
2023-01-04T02:04:31.704Z,0.30
2023-01-04T02:07:00.988Z,0.30
2023-01-04T02:09:31.696Z,0.10
2023-01-04T02:11:58.677Z,0.10
2023-01-04T02:14:29.012Z,0.20
2023-01-04T02:17:11.203Z,0.10
2023-01-04T02:20:02.451Z,0.10
2023-01-04T02:23:03.132Z,0.10
2023-01-04T02:26:15.180Z,0.20
2023-01-04T02:29:29.834Z,0.10
2023-01-04T02:32:04.058Z,0.30
2023-01-04T02:34:39.830Z,0.20
2023-01-04T02:37:19.427Z,0.10
2023-01-04T02:39:51.064Z,0.10
2023-01-04T02:43:16.532Z,0.20
2023-01-04T02:46:00.412Z,0.20
2023-01-04T02:48:57.352Z,0.10
2023-01-04T02:51:37.133Z,0.10
2023-01-04T02:54:11.583Z,0.20
2023-01-04T02:57:05.919Z,0.20
2023-01-04T03:00:11.165Z,0.20
2023-01-04T03:03:43.210Z,0.17
2023-01-04T03:06:25.875Z,0.10
2023-01-04T03:09:15.406Z,0.20
2023-01-04T03:12:11.792Z,0.20
2023-01-04T03:14:48.298Z,0.10
2023-01-04T03:17:20.724Z,0.10
2023-01-04T03:19:51.941Z,0.20
2023-01-04T03:22:54.020Z,0.15
2023-01-04T03:25:45.431Z,0.17
2023-01-04T03:28:34.188Z,0.10
2023-01-04T03:31:47.660Z,0.15
2023-01-04T03:34:33.647Z,0.10
2023-01-04T03:37:34.462Z,0.30
2023-01-04T03:40:38.691Z,0.20
2023-01-04T03:43:39.204Z,0.20
2023-01-04T03:46:38.733Z,0.20
2023-01-04T03:49:21.040Z,0.20
2023-01-04T03:51:52.501Z,0.10
2023-01-04T03:54:29.521Z,0.20
2023-01-04T03:56:58.323Z,0.10
2023-01-04T03:59:25.766Z,0.20
2023-01-04T04:01:53.619Z,0.10
2023-01-04T04:04:39.426Z,0.10
2023-01-04T04:07:25.463Z,0.10
2023-01-04T04:09:52.314Z,0.17
2023-01-04T04:12:19.184Z,0.10
2023-01-04T04:14:46.171Z,0.20
2023-01-04T04:17:12.971Z,0.17
2023-01-04T04:19:39.819Z,0.20
2023-01-04T04:22:06.611Z,0.20
2023-01-04T04:24:33.419Z,0.10
2023-01-04T04:27:00.264Z,0.10
2023-01-04T04:29:27.051Z,0.20
2023-01-04T04:31:53.856Z,0.32
2023-01-04T04:34:20.761Z,0.20
2023-01-04T04:36:47.723Z,0.30
2023-01-04T04:39:14.753Z,0.70
2023-01-04T04:41:42.138Z,1.38
2023-01-04T04:44:14.674Z,1.30
2023-01-04T04:46:42.638Z,1.95
2023-01-04T04:49:10.581Z,1.67
2023-01-04T04:51:38.380Z,2.13
2023-01-04T04:54:07.026Z,2.38
2023-01-04T04:56:34.113Z,1.90
2023-01-04T04:59:00.873Z,2.53
2023-01-04T05:01:28.177Z,2.20
2023-01-04T05:03:55.133Z,2.97
2023-01-04T05:06:21.939Z,2.55
2023-01-04T05:08:49.185Z,2.20
2023-01-04T05:11:16.217Z,2.72
2023-01-04T05:13:43.094Z,2.63
2023-01-04T05:16:11.009Z,2.47
2023-01-04T05:18:37.890Z,2.55
2023-01-04T05:21:05.242Z,3.05
2023-01-04T05:23:32.185Z,2.65
2023-01-04T05:26:03.807Z,2.85
2023-01-04T05:28:30.645Z,2.40
2023-01-04T05:30:57.720Z,3.20
2023-01-04T05:33:31.911Z,2.58
2023-01-04T05:36:02.789Z,2.30
2023-01-04T05:38:30.624Z,3.03
2023-01-04T05:40:57.931Z,2.53
2023-01-04T05:43:25.209Z,2.95
2023-01-04T05:45:55.956Z,2.70
2023-01-04T05:48:25.097Z,3.53
2023-01-04T05:50:53.709Z,3.08
2023-01-04T05:53:20.602Z,2.70
2023-01-04T05:55:50.356Z,3.20
2023-01-04T05:58:17.631Z,3.22
2023-01-04T06:00:44.587Z,2.92
2023-01-04T06:03:11.561Z,3.10
2023-01-04T06:05:38.680Z,4.13
2023-01-04T06:08:06.114Z,3.65
2023-01-04T06:10:33.347Z,4.40
2023-01-04T06:13:00.165Z,4.43
2023-01-04T06:15:27.024Z,4.55
2023-01-04T06:17:54.101Z,4.22
2023-01-04T06:20:20.948Z,4.10
2023-01-04T06:22:47.785Z,4.07
2023-01-04T06:25:14.718Z,4.18
2023-01-04T06:27:41.537Z,3.90
2023-01-04T06:30:09.819Z,4.05
2023-01-04T06:32:36.896Z,4.20
2023-01-04T06:35:05.002Z,4.55
2023-01-04T06:37:31.862Z,5.30
2023-01-04T06:39:58.672Z,4.35
2023-01-04T06:42:43.930Z,5.28
2023-01-04T06:45:11.720Z,5.03
2023-01-04T06:47:40.455Z,5.00
2023-01-04T06:50:08.237Z,5.35
2023-01-04T06:52:35.083Z,4.82
2023-01-04T06:55:01.983Z,5.82
2023-01-04T06:57:29.110Z,5.45
2023-01-04T06:59:55.911Z,5.57
2023-01-04T07:02:22.912Z,6.18
2023-01-04T07:04:50.124Z,5.15
2023-01-04T07:07:16.962Z,5.68
2023-01-04T07:09:43.752Z,5.03
2023-01-04T07:12:10.734Z,4.63
2023-01-04T07:14:37.512Z,5.07
2023-01-04T07:17:04.326Z,5.47
2023-01-04T07:19:31.250Z,6.15
2023-01-04T07:21:58.978Z,5.13
2023-01-04T07:24:30.460Z,4.78
2023-01-04T07:27:00.243Z,4.10
2023-01-04T07:29:27.562Z,4.50
2023-01-04T07:31:55.381Z,4.70
2023-01-04T07:34:25.451Z,4.43
2023-01-04T07:36:52.457Z,4.43
2023-01-04T07:39:19.842Z,4.53
2023-01-04T07:41:47.765Z,5.22
2023-01-04T07:44:15.203Z,7.25
2023-01-04T07:46:43.312Z,5.63
2023-01-04T07:49:18.196Z,5.20
2023-01-04T07:54:19.314Z,4.78
2023-01-04T07:56:47.517Z,4.50
2023-01-04T07:59:18.125Z,4.93
2023-01-04T08:01:45.706Z,4.60
2023-01-04T08:04:13.850Z,4.07
2023-01-04T08:06:42.278Z,5.50
2023-01-04T08:09:11.676Z,5.68
2023-01-04T08:11:39.077Z,6.20
2023-01-04T08:14:05.832Z,5.03
2023-01-04T08:16:36.452Z,4.78
2023-01-04T08:19:13.553Z,4.63
2023-01-04T08:21:41.116Z,4.60
2023-01-04T08:24:09.929Z,4.20
2023-01-04T08:26:36.774Z,5.13
2023-01-04T08:29:03.683Z,5.00
2023-01-04T08:31:33.255Z,4.70
2023-01-04T08:34:05.170Z,5.18
2023-01-04T08:36:35.694Z,5.30
2023-01-04T08:39:06.649Z,4.93
2023-01-04T08:42:04.168Z,4.25
2023-01-04T08:44:35.286Z,4.90
2023-01-04T08:47:02.608Z,4.15
2023-01-04T08:49:29.746Z,4.65
2023-01-04T08:51:57.041Z,4.57
2023-01-04T08:54:23.949Z,4.57
2023-01-04T08:56:51.198Z,5.32
2023-01-04T08:59:18.091Z,5.00
2023-01-04T09:01:46.268Z,5.22
2023-01-04T09:04:13.413Z,4.88
2023-01-04T09:06:40.470Z,5.43
2023-01-04T09:09:07.583Z,5.18
2023-01-04T09:11:35.471Z,6.47
2023-01-04T09:14:08.095Z,5.15
2023-01-04T09:16:37.877Z,5.20
2023-01-04T09:19:06.198Z,6.18
2023-01-04T09:21:33.293Z,6.07
2023-01-04T09:24:00.123Z,6.05
2023-01-04T09:26:27.280Z,6.50
2023-01-04T09:28:56.082Z,6.93
2023-01-04T09:31:26.573Z,5.60
2023-01-04T09:36:41.322Z,6.07
2023-01-04T09:39:13.250Z,5.85
2023-01-04T09:41:53.025Z,6.22
2023-01-04T09:47:55.237Z,6.55
2023-01-04T09:50:32.440Z,6.15
2023-01-04T09:53:16.761Z,7.00
2023-01-04T09:55:48.861Z,6.30
2023-01-04T09:58:37.628Z,5.53
2023-01-04T10:01:19.422Z,6.20
2023-01-04T10:04:01.990Z,6.38
2023-01-04T10:06:29.537Z,6.30
2023-01-04T10:09:10.972Z,5.65
2023-01-04T10:12:06.061Z,6.57
2023-01-04T10:14:55.016Z,5.93
2023-01-04T10:21:28.220Z,5.75
2023-01-04T10:24:40.418Z,5.63
2023-01-04T10:27:31.301Z,5.95
2023-01-04T10:30:15.689Z,6.07
2023-01-04T10:32:45.181Z,5.38
2023-01-04T10:35:23.525Z,5.20
2023-01-04T10:37:57.649Z,6.10
2023-01-04T10:40:28.215Z,7.17
2023-01-04T10:44:11.049Z,5.95
2023-01-04T10:47:24.002Z,6.65
2023-01-04T10:49:57.217Z,6.70
2023-01-04T10:52:43.323Z,5.63
2023-01-04T10:55:25.527Z,5.40
2023-01-04T10:58:03.089Z,5.25
2023-01-04T11:00:59.564Z,5.38
2023-01-04T11:03:54.080Z,5.85
2023-01-04T11:06:26.506Z,4.82
2023-01-04T11:08:59.356Z,5.07
2023-01-04T11:11:32.926Z,4.55
2023-01-04T11:14:00.429Z,4.22
2023-01-04T11:16:30.387Z,4.55
2023-01-04T11:18:57.761Z,3.42
2023-01-04T11:21:36.115Z,3.53
2023-01-04T11:24:31.606Z,4.18
2023-01-04T11:26:55.766Z,3.45
2023-01-04T11:29:46.463Z,3.80
2023-01-04T11:33:01.500Z,3.83
2023-01-04T11:35:43.887Z,3.97
2023-01-04T11:38:14.627Z,4.00
2023-01-04T11:40:42.324Z,4.60
2023-01-04T11:43:21.847Z,4.43
2023-01-04T11:46:02.170Z,4.35
2023-01-04T11:48:42.768Z,3.90
2023-01-04T11:51:29.210Z,3.72
2023-01-04T11:54:14.520Z,3.85
2023-01-04T11:57:11.999Z,4.35
2023-01-04T11:59:39.646Z,4.10
2023-01-04T12:02:59.588Z,3.53
2023-01-04T12:05:29.947Z,4.05
2023-01-04T12:07:59.146Z,4.85
2023-01-04T12:10:28.222Z,4.68
2023-01-04T12:12:57.647Z,4.75
2023-01-04T12:16:13.248Z,4.40
2023-01-04T12:18:43.696Z,4.25
2023-01-04T12:21:28.443Z,3.97
2023-01-04T12:23:56.326Z,4.25
2023-01-04T12:26:23.796Z,3.88
2023-01-04T12:29:24.536Z,4.43
2023-01-04T12:31:53.803Z,4.22
2023-01-04T12:34:23.557Z,4.70
2023-01-04T12:37:05.536Z,4.72
2023-01-04T12:39:45.761Z,4.88
2023-01-04T12:42:21.831Z,4.90
2023-01-04T12:44:52.333Z,4.57
2023-01-04T12:47:37.966Z,4.20
2023-01-04T12:50:12.630Z,5.20
2023-01-04T12:55:44.192Z,4.10
2023-01-04T12:58:58.101Z,4.18
2023-01-04T13:01:29.065Z,4.90
2023-01-04T13:04:05.448Z,4.35
2023-01-04T13:06:46.197Z,4.82
2023-01-04T13:09:24.834Z,4.90
2023-01-04T13:12:33.530Z,4.22
2023-01-04T13:15:08.182Z,4.72
2023-01-04T13:17:40.555Z,4.57
2023-01-04T13:20:38.577Z,4.95
2023-01-04T13:23:11.637Z,4.38
2023-01-04T13:25:38.531Z,4.65
2023-01-04T13:28:05.866Z,5.20
2023-01-04T13:30:38.880Z,5.65
2023-01-04T13:33:26.393Z,5.40
2023-01-04T13:36:14.147Z,5.35
2023-01-04T13:38:41.841Z,5.05
2023-01-04T13:41:22.309Z,5.03
2023-01-04T13:44:11.576Z,5.00
2023-01-04T13:46:43.251Z,4.47
2023-01-04T13:49:16.000Z,4.50
2023-01-04T13:51:42.801Z,5.18
2023-01-04T13:54:23.899Z,4.78
2023-01-04T13:56:55.614Z,4.20
2023-01-04T13:59:23.402Z,4.80
2023-01-04T14:01:51.042Z,5.40
2023-01-04T14:04:29.465Z,5.28
2023-01-04T14:07:00.325Z,5.03
2023-01-04T14:09:36.974Z,5.85
2023-01-04T14:12:30.579Z,6.10
2023-01-04T14:15:21.020Z,5.38
2023-01-04T14:17:51.620Z,4.47
2023-01-04T14:20:22.960Z,5.45
2023-01-04T14:22:49.788Z,5.05
2023-01-04T14:25:34.813Z,5.30
2023-01-04T14:28:20.049Z,4.57
2023-01-04T14:31:00.413Z,4.85
2023-01-04T14:33:36.458Z,4.00
2023-01-04T14:36:09.856Z,3.45
2023-01-04T14:38:40.833Z,3.25
2023-01-04T14:41:22.907Z,3.53
2023-01-04T14:44:06.689Z,3.78
2023-01-04T14:46:33.559Z,3.45
2023-01-04T14:49:00.526Z,3.50
2023-01-04T14:51:38.406Z,3.25
2023-01-04T14:54:06.980Z,2.70
2023-01-04T14:56:34.606Z,3.20
2023-01-04T14:59:01.718Z,3.30
2023-01-04T15:01:28.670Z,3.28
2023-01-04T15:03:55.651Z,3.22
2023-01-04T15:06:23.059Z,4.15
2023-01-04T15:08:50.350Z,4.00
2023-01-04T15:11:18.016Z,3.60
2023-01-04T15:13:45.607Z,3.25
2023-01-04T15:16:16.657Z,3.20
2023-01-04T15:18:45.617Z,3.72
2023-01-04T15:21:13.914Z,4.55
2023-01-04T15:23:40.963Z,4.10
2023-01-04T15:26:10.062Z,4.55
2023-01-04T15:28:37.644Z,4.25
2023-01-04T15:31:13.864Z,4.10
2023-01-04T15:33:41.191Z,4.70
2023-01-04T15:36:15.069Z,3.85
2023-01-04T15:38:44.202Z,4.18
2023-01-04T15:41:36.457Z,4.70
2023-01-04T15:44:04.885Z,4.35
2023-01-04T15:46:32.214Z,4.32
2023-01-04T15:48:59.060Z,4.38
2023-01-04T15:51:25.929Z,3.53
2023-01-04T15:53:53.631Z,3.38
2023-01-04T15:56:21.429Z,3.40
2023-01-04T15:58:53.644Z,3.75
2023-01-04T16:01:21.092Z,3.42
2023-01-04T16:03:53.286Z,3.20
2023-01-04T16:06:21.368Z,3.30
2023-01-04T16:08:50.590Z,3.20
2023-01-04T16:11:20.779Z,3.47
2023-01-04T16:13:50.995Z,3.15
2023-01-04T16:16:19.934Z,3.20
2023-01-04T16:18:49.574Z,2.90
2023-01-04T16:21:27.294Z,3.63
2023-01-04T16:24:05.121Z,3.53
2023-01-04T16:26:33.983Z,2.95
2023-01-04T16:29:00.993Z,3.30
2023-01-04T16:31:37.532Z,4.50
2023-01-04T16:34:05.342Z,3.78
2023-01-04T16:36:32.320Z,2.45
2023-01-04T16:38:59.143Z,3.25
2023-01-04T16:41:25.904Z,3.00
2023-01-04T16:43:55.689Z,3.60
2023-01-04T16:46:35.022Z,3.80
2023-01-04T16:49:09.802Z,3.13
2023-01-04T16:51:39.721Z,3.42
2023-01-04T16:54:10.732Z,3.80
2023-01-04T16:56:39.085Z,4.28
2023-01-04T16:59:08.282Z,3.78
2023-01-04T17:01:40.909Z,3.90
2023-01-04T17:04:14.846Z,4.43
2023-01-04T17:06:45.789Z,3.92
2023-01-04T17:09:16.688Z,3.70
2023-01-04T17:14:43.864Z,5.00
2023-01-04T17:17:10.889Z,4.70
2023-01-04T17:19:37.960Z,4.80
2023-01-04T17:22:04.788Z,5.10
2023-01-04T17:24:31.619Z,4.55
2023-01-04T17:26:58.439Z,4.97
2023-01-04T17:29:25.272Z,4.30
2023-01-04T17:31:52.474Z,4.85
2023-01-04T17:34:23.055Z,5.25
2023-01-04T17:36:50.579Z,5.68
2023-01-04T17:39:17.493Z,5.68
2023-01-04T17:41:44.528Z,5.35
2023-01-04T17:44:11.348Z,4.68
2023-01-04T17:46:38.705Z,4.68
2023-01-04T17:49:31.446Z,4.65
2023-01-04T17:51:58.707Z,4.63
2023-01-04T17:54:27.168Z,4.70
2023-01-04T17:56:54.220Z,4.53
2023-01-04T17:59:21.075Z,5.28
2023-01-04T18:01:48.046Z,4.70
2023-01-04T18:04:15.047Z,5.07
2023-01-04T18:06:42.031Z,4.30
2023-01-04T18:09:09.391Z,4.15
2023-01-04T18:11:36.792Z,4.05
2023-01-04T18:14:07.823Z,4.15
2023-01-04T18:16:56.827Z,3.92
2023-01-04T18:21:56.914Z,4.35
2023-01-04T18:24:39.755Z,4.82
2023-01-04T18:27:26.384Z,4.35
2023-01-04T18:29:55.644Z,4.32
2023-01-04T18:32:24.556Z,4.22
2023-01-04T18:34:51.374Z,4.57
2023-01-04T18:37:19.117Z,4.85
2023-01-04T18:39:47.927Z,4.22
2023-01-04T18:42:15.043Z,3.67
2023-01-04T18:44:47.908Z,4.70
2023-01-04T18:47:20.291Z,3.85
2023-01-04T18:49:51.823Z,4.15
2023-01-04T18:52:19.480Z,4.47
2023-01-04T18:54:48.152Z,4.65
2023-01-04T18:57:15.266Z,4.60
2023-01-04T18:59:42.205Z,5.47
2023-01-04T19:02:19.321Z,5.22
2023-01-04T19:04:46.811Z,5.15
2023-01-04T19:07:13.905Z,4.75
2023-01-04T19:09:42.765Z,4.32
2023-01-04T19:12:10.328Z,4.78
2023-01-04T19:14:37.086Z,4.40
2023-01-04T19:17:03.990Z,4.47
2023-01-04T19:19:30.836Z,4.43
2023-01-04T19:21:57.599Z,3.88
2023-01-04T19:24:24.539Z,3.55
2023-01-04T19:26:52.585Z,4.00
2023-01-04T19:29:19.426Z,4.22
2023-01-04T19:31:46.523Z,3.25
2023-01-04T19:34:13.366Z,3.45
2023-01-04T19:36:40.373Z,3.88
2023-01-04T19:39:09.551Z,3.92
2023-01-04T19:41:38.479Z,3.83
2023-01-04T19:44:09.161Z,3.97
2023-01-04T19:46:38.949Z,3.28
2023-01-04T19:49:14.164Z,3.58
2023-01-04T19:51:43.999Z,3.78
2023-01-04T19:54:13.952Z,4.35
2023-01-04T19:56:41.311Z,4.45
2023-01-04T19:59:08.386Z,5.97
2023-01-04T20:01:35.492Z,4.43
2023-01-04T20:04:02.812Z,4.32
2023-01-04T20:06:29.822Z,4.03
2023-01-04T20:08:56.652Z,4.50
2023-01-04T20:11:23.614Z,3.97
2023-01-04T20:13:50.662Z,4.00
2023-01-04T20:16:17.554Z,4.32
2023-01-04T20:18:44.468Z,4.63
2023-01-04T20:21:13.751Z,4.47
2023-01-04T20:23:41.665Z,3.63
2023-01-04T20:26:18.407Z,3.65
2023-01-04T20:28:46.163Z,3.28
2023-01-04T20:31:17.002Z,3.85
2023-01-04T20:33:44.163Z,3.22
2023-01-04T20:36:18.922Z,3.03
2023-01-04T20:38:47.749Z,3.67
2023-01-04T20:41:18.295Z,4.60
2023-01-04T20:43:46.931Z,3.55
2023-01-04T20:46:20.534Z,3.80
2023-01-04T20:48:47.791Z,3.90
2023-01-04T20:51:18.984Z,3.65
2023-01-04T20:53:46.788Z,4.22
2023-01-04T20:56:17.828Z,3.72
2023-01-04T20:58:46.079Z,5.43
2023-01-04T21:01:14.227Z,4.38
2023-01-04T21:03:41.792Z,4.18
2023-01-04T21:06:13.179Z,4.47
2023-01-04T21:08:41.863Z,4.72
2023-01-04T21:11:10.037Z,4.10
2023-01-04T21:13:36.838Z,4.10
2023-01-04T21:16:04.141Z,4.07
2023-01-04T21:18:31.059Z,3.78
2023-01-04T21:20:58.215Z,4.22
2023-01-04T21:23:26.768Z,4.28
2023-01-04T21:25:53.624Z,3.80
2023-01-04T21:28:22.464Z,3.05
2023-01-04T21:30:50.379Z,3.35
2023-01-04T21:33:17.698Z,3.22
2023-01-04T21:35:44.669Z,3.40
2023-01-04T21:38:12.025Z,3.95
2023-01-04T21:40:41.069Z,4.00
2023-01-04T21:43:15.880Z,4.28
2023-01-04T21:45:42.843Z,3.40
2023-01-04T21:48:10.232Z,3.80
2023-01-04T21:50:37.177Z,3.50
2023-01-04T21:53:04.565Z,4.15
2023-01-04T21:55:34.941Z,3.78
2023-01-04T21:58:02.783Z,3.92
2023-01-04T22:00:29.694Z,3.30
2023-01-04T22:02:56.566Z,3.40
2023-01-04T22:05:23.805Z,3.53
2023-01-04T22:07:50.606Z,3.30
2023-01-04T22:10:17.533Z,3.88
2023-01-04T22:12:45.145Z,3.63
2023-01-04T22:15:11.941Z,3.47
2023-01-04T22:17:38.801Z,4.28
2023-01-04T22:20:06.521Z,4.00
2023-01-04T22:22:33.380Z,3.58
2023-01-04T22:25:00.259Z,3.70
2023-01-04T22:27:27.080Z,3.83
2023-01-04T22:29:54.212Z,3.78
2023-01-04T22:32:20.961Z,3.03
2023-01-04T22:34:47.767Z,3.97
2023-01-04T22:37:14.550Z,3.70
2023-01-04T22:39:41.336Z,3.90
2023-01-04T22:42:08.234Z,3.45
2023-01-04T22:44:34.986Z,2.92
2023-01-04T22:47:01.872Z,3.97
2023-01-04T22:49:28.752Z,3.72
2023-01-04T22:51:57.319Z,3.63
2023-01-04T22:54:24.161Z,3.55
2023-01-04T22:56:51.726Z,4.00
2023-01-04T22:59:18.540Z,3.53
2023-01-04T23:01:45.434Z,3.20
2023-01-04T23:04:16.484Z,3.30
2023-01-04T23:06:43.898Z,3.33
2023-01-04T23:09:15.713Z,2.80
2023-01-04T23:11:43.085Z,2.88
2023-01-04T23:14:14.707Z,2.67
2023-01-04T23:16:41.593Z,2.80
2023-01-04T23:19:08.667Z,2.80
2023-01-04T23:21:36.050Z,2.95
2023-01-04T23:24:03.525Z,3.22
2023-01-04T23:26:32.400Z,2.85
2023-01-04T23:29:00.957Z,3.50
2023-01-04T23:31:31.858Z,2.97
2023-01-04T23:34:02.558Z,3.63
2023-01-04T23:36:33.464Z,2.92
2023-01-04T23:39:04.305Z,3.35
2023-01-04T23:42:00.639Z,4.35
2023-01-04T23:44:32.235Z,3.33
2023-01-04T23:47:07.080Z,3.85
2023-01-04T23:49:37.706Z,4.07
2023-01-04T23:52:06.276Z,3.75
2023-01-04T23:54:34.026Z,4.60
2023-01-04T23:57:01.109Z,3.85
2023-01-04T23:59:27.928Z,4.25
